Time;durP1;ratioP1;P1;durP2;ratioP2;P2;SDS_P1;SDS_P2;PMS_P1;PMS_P2;Temp;Humidity;BMP_temperature;BMP_pressure;BME280_temperature;BME280_humidity;BME280_pressure;Samples;Min_cycle;Max_cycle;Signal;HPM_P1;HPM_P2
2023/12/26 00:00:36;;;;;;;1.37;0.23;;;;;;;;;;5153994;27;20062;-71
2023/12/26 00:03:06;;;;;;;1.05;0.20;;;;;;;;;;5153977;27;20130;-70
2023/12/26 00:05:33;;;;;;;1.20;0.30;;;;;;;;;;5154262;27;20547;-71
2023/12/26 00:08:01;;;;;;;2.03;0.20;;;;;;;;;;5153626;27;20532;-71
2023/12/26 00:10:27;;;;;;;0.73;0.20;;;;;;;;;;5136250;27;20125;-71
2023/12/26 00:12:53;;;;;;;1.60;0.10;;;;;;;;;;5135973;27;20111;-71
2023/12/26 00:15:19;;;;;;;0.47;0.20;;;;;;;;;;5154459;27;20046;-70
2023/12/26 00:17:45;;;;;;;0.47;0.10;;;;;;;;;;5135769;27;20042;-69
2023/12/26 00:20:12;;;;;;;0.65;0.10;;;;;;;;;;5117846;27;20043;-69
2023/12/26 00:22:39;;;;;;;0.30;0.10;;;;;;;;;;5153699;27;20042;-69
2023/12/26 00:25:06;;;;;;;0.98;0.10;;;;;;;;;;5153338;27;20513;-70
2023/12/26 00:27:32;;;;;;;2.80;0.10;;;;;;;;;;5154112;27;20402;-70
2023/12/26 00:29:58;;;;;;;1.02;0.10;;;;;;;;;;5118240;27;20478;-71
2023/12/26 00:32:24;;;;;;;2.45;0.15;;;;;;;;;;5153879;27;20038;-71
2023/12/26 00:34:50;;;;;;;1.50;0.30;;;;;;;;;;5154109;27;20043;-70
2023/12/26 00:37:16;;;;;;;1.08;0.22;;;;;;;;;;5139317;27;20093;-71
2023/12/26 00:39:43;;;;;;;1.83;0.40;;;;;;;;;;5159693;27;20034;-71
2023/12/26 00:42:11;;;;;;;5.28;0.28;;;;;;;;;;5163706;27;20060;-69
2023/12/26 00:44:37;;;;;;;1.20;0.30;;;;;;;;;;5144859;27;20062;-69
2023/12/26 00:47:03;;;;;;;1.15;0.30;;;;;;;;;;5139740;27;20042;-70
2023/12/26 00:49:29;;;;;;;1.67;0.22;;;;;;;;;;5140005;27;20141;-70
2023/12/26 00:51:55;;;;;;;1.30;0.30;;;;;;;;;;5139251;27;20545;-70
2023/12/26 00:54:21;;;;;;;1.30;0.20;;;;;;;;;;5157485;27;20054;-69
2023/12/26 00:56:47;;;;;;;0.75;0.30;;;;;;;;;;5157567;27;20538;-69
2023/12/26 00:59:14;;;;;;;1.23;0.40;;;;;;;;;;5156827;27;20073;-69
2023/12/26 01:01:40;;;;;;;1.63;0.40;;;;;;;;;;5157561;27;20500;-69
2023/12/26 01:04:07;;;;;;;1.90;0.47;;;;;;;;;;5156896;27;20052;-69
2023/12/26 01:06:33;;;;;;;0.35;0.10;;;;;;;;;;5157175;27;20468;-69
2023/12/26 01:08:59;;;;;;;2.28;0.10;;;;;;;;;;5157599;27;20046;-68
2023/12/26 01:11:26;;;;;;;1.10;0.10;;;;;;;;;;5138723;27;20417;-69
2023/12/26 01:13:52;;;;;;;1.40;0.00;;;;;;;;;;5157304;27;20050;-69
2023/12/26 01:16:19;;;;;;;1.27;0.10;;;;;;;;;;5156833;27;20043;-69
2023/12/26 01:18:46;;;;;;;1.67;0.00;;;;;;;;;;5157022;27;20410;-69
2023/12/26 01:21:12;;;;;;;1.50;0.00;;;;;;;;;;5156975;27;20050;-69
2023/12/26 01:23:38;;;;;;;0.40;0.05;;;;;;;;;;5157347;27;20091;-69
2023/12/26 01:26:04;;;;;;;1.15;0.10;;;;;;;;;;5156908;27;20039;-74
2023/12/26 01:28:30;;;;;;;3.53;0.20;;;;;;;;;;5138688;27;20089;-70
2023/12/26 01:30:56;;;;;;;5.65;0.20;;;;;;;;;;5138704;27;20047;-69
2023/12/26 01:33:22;;;;;;;5.45;0.20;;;;;;;;;;5156251;27;20047;-72
2023/12/26 01:35:49;;;;;;;5.10;0.77;;;;;;;;;;5121560;27;20497;-70
2023/12/26 01:38:15;;;;;;;3.08;0.40;;;;;;;;;;5156645;27;20296;-70
2023/12/26 01:40:41;;;;;;;1.58;0.25;;;;;;;;;;5138474;27;20051;-72
2023/12/26 01:43:07;;;;;;;5.15;0.20;;;;;;;;;;5138031;27;20104;-72
2023/12/26 01:45:34;;;;;;;6.10;0.38;;;;;;;;;;5156803;27;20077;-71
2023/12/26 01:48:00;;;;;;;3.58;0.30;;;;;;;;;;5155968;27;20054;-71
2023/12/26 01:50:27;;;;;;;5.72;0.10;;;;;;;;;;5156441;27;20046;-71
2023/12/26 01:52:54;;;;;;;3.75;0.20;;;;;;;;;;5121382;27;20054;-73
2023/12/26 01:55:21;;;;;;;4.60;0.10;;;;;;;;;;5156362;27;20398;-71
2023/12/26 01:57:46;;;;;;;6.82;0.20;;;10.30;99.90;;;;;;5156516;27;20103;-71
2023/12/26 02:00:12;;;;;;;4.32;0.10;;;9.50;99.90;;;;;;5137649;27;20042;-72
2023/12/26 02:02:39;;;;;;;4.10;0.15;;;9.90;99.90;;;;;;5158632;27;20050;-72
2023/12/26 02:05:05;;;;;;;7.03;0.20;;;9.90;99.90;;;;;;5163993;27;20050;-72
2023/12/26 02:07:31;;;;;;;5.90;0.20;;;10.00;99.90;;;;;;5159840;27;20057;-71
2023/12/26 02:09:57;;;;;;;6.38;0.85;;;9.40;99.90;;;;;;5138873;27;20051;-73
2023/12/26 02:12:23;;;;;;;2.90;0.20;;;9.40;99.90;;;;;;5156419;27;20076;-73
2023/12/26 02:14:49;;;;;;;3.45;0.13;;;9.90;99.90;;;;;;5156541;27;20046;-72
2023/12/26 02:17:23;;;;;;;5.55;0.30;;;9.90;99.90;;;;;;5137860;27;20434;-72
2023/12/26 02:19:49;;;;;;;8.63;0.20;;;9.90;99.90;;;;;;5138409;27;20039;-72
2023/12/26 02:22:15;;;;;;;2.72;0.35;;;10.00;99.90;;;;;;5156260;27;20066;-72
2023/12/26 02:24:42;;;;;;;3.38;0.22;;;9.90;99.90;;;;;;5138072;27;20510;-71
2023/12/26 02:27:38;;;;;;;3.95;0.60;;;10.00;99.90;;;;;;5156196;27;20043;-72
2023/12/26 02:30:07;;;;;;;10.05;0.60;;;9.60;99.90;;;;;;5132747;27;20405;-73
2023/12/26 02:32:37;;;;;;;5.28;0.20;;;10.00;99.90;;;;;;5155765;27;20497;-72
2023/12/26 02:35:05;;;;;;;4.20;0.40;;;9.50;99.90;;;;;;5137885;27;20046;-72
2023/12/26 02:37:32;;;;;;;5.85;0.47;;;9.90;99.90;;;;;;5137701;27;20058;-72
2023/12/26 02:39:58;;;;;;;;;;;9.60;99.90;;;;;;5156532;27;20398;-72
2023/12/26 02:42:29;;;;;;;7.40;0.40;;;9.80;99.90;;;;;;5155631;27;19919;-72
2023/12/26 02:44:56;;;;;;;8.43;0.77;;;9.80;99.90;;;;;;5137780;27;20046;-73
2023/12/26 02:47:22;;;;;;;;;;;10.20;99.90;;;;;;5137989;27;20493;-74
2023/12/26 02:49:48;;;;;;;5.47;0.50;;;9.50;99.90;;;;;;5155964;27;19925;-73
2023/12/26 02:52:13;;;;;;;6.43;0.50;;;9.80;99.90;;;;;;5137466;27;20088;-72
2023/12/26 02:54:39;;;;;;;6.60;0.40;;;9.90;99.90;;;;;;5136925;27;20045;-74
2023/12/26 02:57:05;;;;;;;10.18;0.60;;;10.20;99.90;;;;;;5137266;27;20046;-73
2023/12/26 02:59:30;;;;;;;10.85;0.68;;;9.80;99.90;;;;;;5154070;27;20127;-73
2023/12/26 03:01:57;;;;;;;9.90;0.60;;;9.80;99.90;;;;;;5155919;27;20050;-73
2023/12/26 03:04:23;;;;;;;8.15;0.50;;;9.90;99.90;;;;;;5137491;27;20470;-73
2023/12/26 03:06:49;;;;;;;10.15;0.60;;;9.50;99.90;;;;;;5156501;27;20074;-74
2023/12/26 03:09:15;;;;;;;7.50;0.57;;;9.90;99.90;;;;;;5140907;27;20129;-74
2023/12/26 03:11:41;;;;;;;11.07;1.08;;;9.40;99.90;;;;;;5138129;27;20051;-73
2023/12/26 03:14:06;;;;;;;10.40;0.55;;;9.80;99.90;;;;;;5155977;27;20050;-74
2023/12/26 03:16:32;;;;;;;4.35;0.40;;;9.40;99.90;;;;;;5137790;27;20045;-73
2023/12/26 03:18:58;;;;;;;6.55;0.50;;;9.30;99.90;;;;;;5142241;27;20055;-74
2023/12/26 03:21:23;;;;;;;3.00;0.55;;;9.70;99.90;;;;;;5131126;27;20043;-72
2023/12/26 03:23:51;;;;;;;11.05;0.50;;;9.20;99.90;;;;;;5156859;27;20054;-73
2023/12/26 03:26:16;;;;;;;7.95;0.70;;;9.80;99.90;;;;;;5120283;27;20042;-72
2023/12/26 03:28:42;;;;;;;9.43;0.60;;;9.80;99.90;;;;;;5136888;27;20049;-74
2023/12/26 03:31:08;;;;;;;7.30;0.70;;;9.50;99.90;;;;;;5136893;27;20078;-72
2023/12/26 03:33:36;;;;;;;6.93;0.50;;;9.80;99.90;;;;;;5136741;27;20504;-73
2023/12/26 03:36:04;;;;;;;7.88;0.40;;;9.40;99.90;;;;;;5137302;27;20051;-73
2023/12/26 03:38:29;;;;;;;6.35;0.70;;;9.80;99.90;;;;;;5154690;27;20443;-75
2023/12/26 03:40:56;;;;;;;7.15;0.60;;;9.50;99.90;;;;;;5155161;27;20051;-73
2023/12/26 03:43:21;;;;;;;7.57;0.60;;;9.80;99.90;;;;;;5136827;27;20052;-72
2023/12/26 03:45:49;;;;;;;11.70;0.65;;;9.50;99.90;;;;;;5119411;27;20047;-73
2023/12/26 03:48:14;;;;;;;;;;;9.80;99.90;;;;;;5155236;27;20046;-74
2023/12/26 03:50:40;;;;;;;6.00;0.50;;;9.30;99.90;;;;;;5135791;27;20022;-71
2023/12/26 03:53:06;;;;;;;6.75;0.38;;;8.90;99.90;;;;;;5136297;27;20046;-72
2023/12/26 03:55:32;;;;;;;6.72;0.32;;;8.90;99.90;;;;;;5135930;27;20043;-71
2023/12/26 03:57:58;;;;;;;5.38;0.82;;;8.50;99.90;;;;;;5154752;27;20517;-71
2023/12/26 04:00:24;;;;;;;5.35;0.40;;;8.60;99.90;;;;;;5135855;27;20047;-76
2023/12/26 04:02:50;;;;;;;8.13;0.50;;;8.10;99.90;;;;;;5154895;27;20051;-72
2023/12/26 04:05:15;;;;;;;6.72;0.45;;;8.00;99.90;;;;;;5154688;27;20130;-71
2023/12/26 04:07:41;;;;;;;5.82;0.40;;;7.90;99.90;;;;;;5154070;27;20082;-72
2023/12/26 04:10:08;;;;;;;4.30;0.38;;;7.60;99.90;;;;;;5154070;27;20074;-70
2023/12/26 04:12:34;;;;;;;3.83;0.30;;;7.60;99.90;;;;;;5135662;27;20111;-71
2023/12/26 04:15:00;;;;;;;3.30;0.40;;;7.60;99.90;;;;;;5154562;27;20099;-72
2023/12/26 04:17:26;;;;;;;3.30;0.30;;;7.30;99.90;;;;;;5154521;27;20043;-71
2023/12/26 04:19:52;;;;;;;3.55;0.25;;;7.30;99.90;;;;;;5136210;27;20078;-73
2023/12/26 04:22:18;;;;;;;9.27;0.55;;;;;;;;;;5154194;27;20130;-72
2023/12/26 04:24:44;;;;;;;7.50;0.40;;;;;;;;;;5154082;27;20043;-71
2023/12/26 04:27:10;;;;;;;6.15;0.60;;;;;;;;;;5136325;27;20134;-73
2023/12/26 04:29:36;;;;;;;9.52;0.55;;;;;;;;;;5135813;27;20058;-72
2023/12/26 04:32:03;;;;;;;6.53;0.65;;;;;;;;;;5136279;27;20046;-72
2023/12/26 04:34:29;;;;;;;4.97;0.30;;;;;;;;;;5154147;27;20091;-72
2023/12/26 04:36:56;;;;;;;4.40;0.40;;;;;;;;;;5135974;27;20039;-72
2023/12/26 04:39:22;;;;;;;5.97;0.40;;;;;;;;;;5154435;27;20390;-72
2023/12/26 04:41:48;;;;;;;7.70;0.75;;;;;;;;;;5153757;27;20047;-72
2023/12/26 04:44:14;;;;;;;8.98;0.45;;;;;;;;;;5154042;27;20050;-72
2023/12/26 04:46:41;;;;;;;6.03;0.40;;;;;;;;;;5153772;27;20065;-73
2023/12/26 04:49:07;;;;;;;4.75;0.28;;;;;;;;;;5154083;27;20043;-72
2023/12/26 04:51:33;;;;;;;7.32;0.50;;;;;;;;;;5118270;27;20047;-73
2023/12/26 04:53:59;;;;;;;10.45;0.40;;;;;;;;;;5154312;27;20398;-72
2023/12/26 04:56:26;;;;;;;7.35;0.47;;;;;;;;;;5154278;27;20039;-71
2023/12/26 04:58:52;;;;;;;8.68;0.52;;;;;;;;;;5153486;27;20375;-73
2023/12/26 05:01:19;;;;;;;6.40;0.50;;;;;;;;;;5154465;27;20059;-71
2023/12/26 05:03:46;;;;;;;5.60;0.47;;;;;;;;;;5153684;27;20078;-73
2023/12/26 05:06:13;;;;;;;5.53;0.45;;;;;;;;;;5153886;27;20046;-73
2023/12/26 05:08:39;;;;;;;7.20;0.50;;;;;;;;;;5135266;27;20475;-72
2023/12/26 05:11:06;;;;;;;19.35;2.13;;;;;;;;;;5153974;27;20074;-72
2023/12/26 05:13:32;;;;;;;12.07;0.95;;;;;;;;;;5135386;27;20042;-73
2023/12/26 05:16:03;;;;;;;9.50;0.70;;;;;;;;;;5153510;27;20053;-73
2023/12/26 05:18:29;;;;;;;7.25;0.60;;;;;;;;;;5153572;27;20046;-72
2023/12/26 05:20:55;;;;;;;6.87;0.57;;;;;;;;;;5152973;27;20356;-73
2023/12/26 05:23:22;;;;;;;4.07;0.43;;;;;;;;;;5155320;27;20133;-73
2023/12/26 05:25:48;;;;;;;8.25;0.50;;;;;;;;;;5138610;27;20047;-72
2023/12/26 05:28:14;;;;;;;6.45;0.50;;;;;;;;;;5157825;27;20043;-72
2023/12/26 05:30:40;;;;;;;8.38;0.70;;;;;;;;;;5158561;27;20451;-72
2023/12/26 05:33:06;;;;;;;8.63;0.45;;;;;;;;;;5159529;27;20043;-72
2023/12/26 05:35:32;;;;;;;9.05;0.60;;;;;;;;;;5139866;27;20038;-72
2023/12/26 05:37:58;;;;;;;5.28;0.40;;;;;;;;;;5157096;27;20362;-72
2023/12/26 05:40:24;;;;;;;8.98;0.50;;;;;;;;;;5138766;27;20047;-72
2023/12/26 05:42:51;;;;;;;8.55;0.77;;;;;;;;;;5138117;27;20151;-71
2023/12/26 05:45:17;;;;;;;8.27;0.57;;;;;;;;;;5138609;27;20054;-72
2023/12/26 05:47:44;;;;;;;7.75;0.60;;;;;;;;;;5138162;27;20625;-72
2023/12/26 05:50:10;;;;;;;3.35;0.40;;;;;;;;;;5138330;27;20043;-72
2023/12/26 05:52:36;;;;;;;7.88;0.60;;;;;;;;;;5138722;27;20043;-70
2023/12/26 05:55:02;;;;;;;8.77;1.25;;;;;;;;;;5138260;27;20054;-72
2023/12/26 05:57:29;;;;;;;8.85;0.50;;;;;;;;;;5156855;27;20121;-71
2023/12/26 05:59:55;;;;;;;5.10;0.32;;;;;;;;;;5156155;27;20051;-71
2023/12/26 06:02:21;;;;;;;9.77;0.90;;;;;;;;;;5138103;27;20158;-72
2023/12/26 06:04:47;;;;;;;4.70;0.47;;;;;;;;;;5156074;27;20521;-72
2023/12/26 06:07:13;;;;;;;7.60;0.55;;;;;;;;;;5156698;27;20488;-71
2023/12/26 06:09:39;;;;;;;7.65;0.80;;;;;;;;;;5156639;27;20042;-71
2023/12/26 06:12:06;;;;;;;7.13;0.50;;;;;;;;;;5156103;27;20046;-71
2023/12/26 06:14:32;;;;;;;10.70;0.60;;;;;;;;;;5156342;27;20045;-72
2023/12/26 06:17:00;;;;;;;7.00;0.40;;;;;;;;;;5120706;27;20061;-72
2023/12/26 06:19:26;;;;;;;7.60;0.65;;;;;;;;;;5138093;27;20364;-71
2023/12/26 06:21:52;;;;;;;7.45;0.60;;;;;;;;;;5137588;27;20094;-73
2023/12/26 06:24:19;;;;;;;6.15;0.50;;;;;;;;;;5156209;27;20137;-71
2023/12/26 06:26:45;;;;;;;5.68;0.40;;;;;;;;;;5156093;27;20487;-72
2023/12/26 06:29:11;;;;;;;10.53;0.43;;;;;;;;;;5156045;27;20514;-73
2023/12/26 06:31:37;;;;;;;12.00;1.00;;;;;;;;;;5155953;27;20038;-71
2023/12/26 06:34:03;;;;;;;9.50;0.68;;;;;;;;;;5136895;27;20054;-71
2023/12/26 06:36:32;;;;;;;7.80;0.47;;;;;;;;;;5137789;27;20107;-71
2023/12/26 06:39:00;;;;;;;7.20;0.60;;;;;;;;;;5136940;27;20038;-71
2023/12/26 06:41:29;;;;;;;7.22;1.08;;;;;;;;;;5156066;27;20110;-71
2023/12/26 06:43:56;;;;;;;5.80;0.60;;;;;;;;;;5155305;27;20050;-71
2023/12/26 06:46:22;;;;;;;7.57;0.50;;;;;;;;;;5155545;27;20050;-71
2023/12/26 06:48:49;;;;;;;9.77;0.57;;;;;;;;;;5155761;27;20047;-71
2023/12/26 06:51:16;;;;;;;6.43;0.70;;;;;;;;;;5155568;27;20092;-70
2023/12/26 06:53:43;;;;;;;11.27;0.77;;;;;;;;;;5137090;27;20046;-72
2023/12/26 06:56:09;;;;;;;8.80;0.80;;;;;;;;;;5155066;27;20039;-71
2023/12/26 06:58:35;;;;;;;12.80;0.70;;;;;;;;;;5136820;27;20070;-71
2023/12/26 07:01:02;;;;;;;10.40;0.80;;;;;;;;;;5154704;27;20094;-71
2023/12/26 07:03:28;;;;;;;6.93;0.40;;;;;;;;;;5155555;27;20054;-71
2023/12/26 07:05:54;;;;;;;6.10;0.55;;;;;;;;;;5154962;27;20134;-70
2023/12/26 07:08:20;;;;;;;11.77;0.70;;;;;;;;;;5136993;27;20096;-72
2023/12/26 07:10:46;;;;;;;12.90;1.55;;;;;;;;;;5155299;27;20134;-72
2023/12/26 07:13:13;;;;;;;9.38;0.93;;;;;;;;;;5154765;27;20050;-73
2023/12/26 07:15:39;;;;;;;12.70;1.42;;;;;;;;;;5119645;27;20046;-72
2023/12/26 07:18:05;;;;;;;10.57;0.70;;;;;;;;;;5154785;27;20043;-74
2023/12/26 07:20:31;;;;;;;9.60;0.82;;;;;;;;;;5155070;27;20047;-72
2023/12/26 07:22:57;;;;;;;15.77;0.98;;;;;;;;;;5136440;27;20062;-72
2023/12/26 07:25:24;;;;;;;13.95;1.35;;;;;;;;;;5136609;27;20047;-71
2023/12/26 07:27:53;;;;;;;12.43;0.93;;;;;;;;;;5136911;27;20078;-71
2023/12/26 07:30:19;;;;;;;9.60;1.02;;;;;;;;;;5154340;27;20047;-71
2023/12/26 07:32:45;;;;;;;10.07;0.50;;;;;;;;;;5154902;27;20053;-71
2023/12/26 07:35:11;;;;;;;8.75;0.93;;;;;;;;;;5154464;27;20134;-73
2023/12/26 07:37:37;;;;;;;10.50;0.50;;;;;;;;;;5154789;27;20038;-70
2023/12/26 07:40:04;;;;;;;11.82;1.70;;;;;;;;;;5136003;27;20039;-72
2023/12/26 07:42:30;;;;;;;11.88;1.00;;;;;;;;;;5136355;27;20490;-73
2023/12/26 07:44:59;;;;;;;12.25;1.45;;;;;;;;;;5154385;27;20095;-72
2023/12/26 07:47:25;;;;;;;12.80;1.10;;;;;;;;;;5119492;27;20047;-71
2023/12/26 07:49:51;;;;;;;9.90;1.25;;;;;;;;;;5137112;27;20114;-71
2023/12/26 07:52:17;;;;;;;8.17;0.60;;;;;;;;;;5155696;27;20050;-73
2023/12/26 07:54:43;;;;;;;10.00;1.10;;;;;;;;;;5138654;27;20071;-73
2023/12/26 07:57:10;;;;;;;11.95;0.80;;;;;;;;;;5159704;27;20038;-72
2023/12/26 07:59:36;;;;;;;11.13;1.02;;;;;;;;;;5164588;27;20059;-73
2023/12/26 08:02:03;;;;;;;11.35;0.73;;;;;;;;;;5139324;27;20050;-73
2023/12/26 08:04:29;;;;;;;11.30;0.60;;;;;;;;;;5155746;27;20058;-71
2023/12/26 08:06:55;;;;;;;9.10;0.73;;;;;;;;;;5154885;27;20418;-74
2023/12/26 08:09:21;;;;;;;13.82;0.90;;;;;;;;;;5153988;27;20053;-73
2023/12/26 08:11:47;;;;;;;10.70;0.55;;;;;;;;;;5154177;27;20549;-73
2023/12/26 08:14:17;;;;;;;12.63;0.75;;;;;;;;;;5135666;27;20092;-72
2023/12/26 08:16:44;;;;;;;10.68;0.80;;;;;;;;;;5139744;27;20051;-73
2023/12/26 08:19:10;;;;;;;16.33;1.42;;;;;;;;;;5136391;27;20046;-73
2023/12/26 08:21:37;;;;;;;16.67;1.10;;;;;;;;;;5135880;27;20470;-73
2023/12/26 08:24:04;;;;;;;9.98;0.73;;;;;;;;;;5135561;27;20458;-73
2023/12/26 08:26:34;;;;;;;15.15;0.90;;;;;;;;;;5135340;27;20053;-72
2023/12/26 08:29:00;;;;;;;12.63;0.82;;;;;;;;;;5154237;27;20043;-73
2023/12/26 08:31:26;;;;;;;8.60;0.60;;;;;;;;;;5153871;27;20486;-73
2023/12/26 08:33:52;;;;;;;13.88;0.75;;;;;;;;;;5154098;27;20078;-73
2023/12/26 08:36:18;;;;;;;6.40;0.50;;;;;;;;;;5153601;27;20439;-72
2023/12/26 08:38:44;;;;;;;8.65;0.70;;;;;;;;;;5153820;27;20129;-74
2023/12/26 08:41:13;;;;;;;7.20;0.70;;;;;;;;;;5135127;27;20057;-74
2023/12/26 08:43:39;;;;;;;12.38;1.05;;;;;;;;;;5136159;27;20047;-75
2023/12/26 08:46:05;;;;;;;13.27;1.48;;;;;;;;;;5154228;27;20157;-73
2023/12/26 08:48:31;;;;;;;12.10;1.15;;;;;;;;;;5153981;27;20486;-74
2023/12/26 08:50:58;;;;;;;9.55;0.73;;;;;;;;;;5154107;27;20121;-73
2023/12/26 08:53:24;;;;;;;11.70;0.60;;;;;;;;;;5117928;27;20047;-73
2023/12/26 08:55:51;;;;;;;9.00;0.80;;;;;;;;;;5153930;27;20620;-74
2023/12/26 08:58:17;;;;;;;11.27;0.60;;;;;;;;;;5119888;27;20058;-76
2023/12/26 09:00:44;;;;;;;5.43;0.57;;;;;;;;;;5157707;27;20050;-75
2023/12/26 09:03:11;;;;;;;8.85;0.93;;;;;;;;;;5157503;27;20050;-74
2023/12/26 09:05:37;;;;;;;8.15;1.05;;;;;;;;;;5139520;27;20046;-76
2023/12/26 09:08:04;;;;;;;10.95;0.90;;;;;;;;;;5139630;27;20045;-73
2023/12/26 09:10:30;;;;;;;12.10;0.80;;;;;;;;;;5138751;27;20038;-75
2023/12/26 09:12:56;;;;;;;10.63;0.80;;;;;;;;;;5139568;27;20280;-74
2023/12/26 09:15:22;;;;;;;7.70;0.95;;;;;;;;;;5156799;27;20485;-76
2023/12/26 09:17:48;;;;;;;10.07;0.70;;;;;;;;;;5157431;27;20127;-75
2023/12/26 09:20:14;;;;;;;12.50;0.70;;;;;;;;;;5138415;27;20485;-74
2023/12/26 09:22:40;;;;;;;10.57;1.10;;;;;;;;;;5157175;27;20082;-75
2023/12/26 09:25:07;;;;;;;9.02;0.75;;;;;;;;;;5157846;27;20405;-75
2023/12/26 09:27:34;;;;;;;10.88;0.88;;;;;;;;;;5145086;27;20039;-77
2023/12/26 09:30:00;;;;;;;9.00;0.70;;;;;;;;;;5166201;27;20063;-75
2023/12/26 09:32:26;;;;;;;13.73;0.90;;;;;;;;;;5139227;27;20043;-75
2023/12/26 09:34:52;;;;;;;11.52;0.65;;;;;;;;;;5157687;27;20050;-74
2023/12/26 09:37:18;;;;;;;12.15;0.77;;;;;;;;;;5156802;27;20047;-77
2023/12/26 09:39:44;;;;;;;9.40;0.85;;;;;;;;;;5121494;27;20058;-76
2023/12/26 09:42:11;;;;;;;12.95;0.82;;;;;;;;;;5139143;27;20203;-78
2023/12/26 09:44:38;;;;;;;13.52;0.85;;;;;;;;;;5156856;27;20081;-77
2023/12/26 09:47:06;;;;;;;12.93;0.88;;;;;;;;;;5157027;27;20047;-76
2023/12/26 09:49:32;;;;;;;9.68;1.45;;;;;;;;;;5138308;27;20051;-76
2023/12/26 09:52:02;;;;;;;26.92;1.67;;;;;;;;;;5156833;27;20039;-76
2023/12/26 09:54:31;;;;;;;11.40;0.80;;;;;;;;;;5157149;27;20117;-76
2023/12/26 09:56:57;;;;;;;19.33;1.23;;;;;;;;;;5156835;27;20042;-78
2023/12/26 09:59:26;;;;;;;14.82;1.40;;;;;;;;;;5156617;27;20074;-78
2023/12/26 10:01:52;;;;;;;12.18;1.20;;;;;;;;;;5157370;27;20050;-76
2023/12/26 10:04:18;;;;;;;11.30;0.93;;;;;;;;;;5138008;27;20047;-76
2023/12/26 10:06:45;;;;;;;12.73;1.10;;;;;;;;;;5138014;27;20035;-76
2023/12/26 10:09:11;;;;;;;6.53;0.63;;;;;;;;;;5156356;27;20050;-77
2023/12/26 10:11:43;;;;;;;11.07;1.23;;;;;;;;;;5156247;27;20046;-77
2023/12/26 10:14:09;;;;;;;10.85;0.90;;;;;;;;;;5138060;27;20039;-76
2023/12/26 10:16:35;;;;;;;9.60;1.10;;;;;;;;;;5137586;27;20428;-76
2023/12/26 10:19:01;;;;;;;17.60;1.17;;;;;;;;;;5121043;27;20043;-76
2023/12/26 10:21:29;;;;;;;10.00;0.85;;;;;;;;;;5137734;27;20043;-74
2023/12/26 10:23:56;;;;;;;13.20;1.00;;;;;;;;;;5158535;27;20057;-76
2023/12/26 10:26:22;;;;;;;13.50;0.77;;;;;;;;;;5162291;27;20135;-77
2023/12/26 10:28:51;;;;;;;14.20;1.15;;;;;;;;;;5106842;27;20080;-76
2023/12/26 10:31:20;;;;;;;8.82;0.70;;;;;;;;;;5121465;27;20134;-76
2023/12/26 10:33:46;;;;;;;15.55;0.80;;;;;;;;;;5156523;27;20099;-78
2023/12/26 10:36:12;;;;;;;9.77;1.02;;;;;;;;;;5121515;27;20054;-75
2023/12/26 10:38:39;;;;;;;14.15;1.05;;;;;;;;;;5158801;27;20047;-74
2023/12/26 10:41:10;;;;;;;13.35;0.88;;;;;;;;;;5139109;27;20039;-77
2023/12/26 10:43:41;;;;;;;8.65;0.88;;;;;;;;;;5157537;27;20051;-75
2023/12/26 10:46:10;;;;;;;16.17;1.00;;;;;;;;;;5156613;27;20047;-78
2023/12/26 10:48:36;;;;;;;11.15;0.90;;;;;;;;;;5156329;27;20058;-78
2023/12/26 10:51:03;;;;;;;11.75;0.88;;;;;;;;;;5156856;27;20046;-77
2023/12/26 10:53:50;;;;;;;13.40;0.80;;;;;;;;;;5137640;27;20057;-76
2023/12/26 10:56:16;;;;;;;15.10;1.52;;;;;;;;;;5138130;27;20103;-77
2023/12/26 10:58:42;;;;;;;9.73;1.10;;;;;;;;;;5137428;27;20043;-78
2023/12/26 13:52:22;;;;;;;9.23;0.93;;;;;;;;;;5157223;27;20043;-77
2023/12/26 13:54:48;;;;;;;11.52;0.98;;;;;;;;;;5157236;27;20047;-77
2023/12/26 13:57:14;;;;;;;8.77;0.73;;;;;;;;;;5156911;27;20039;-78
2023/12/26 13:59:40;;;;;;;10.43;1.08;;;;;;;;;;5156942;27;20050;-76
2023/12/26 14:02:06;;;;;;;8.77;0.90;;;;;;;;;;5156421;27;20043;-75
2023/12/26 14:04:33;;;;;;;10.13;1.50;;;;;;;;;;5160646;27;20046;-75
2023/12/26 14:06:59;;;;;;;9.75;0.70;;;;;;;;;;5148600;27;20065;-75
2023/12/26 14:09:26;;;;;;;5.37;0.40;;;;;;;;;;5158450;27;20046;-76
2023/12/26 14:11:52;;;;;;;8.00;0.63;;;;;;;;;;5138791;27;20066;-78
2023/12/26 14:14:18;;;;;;;10.88;0.70;;;;;;;;;;5156273;27;20039;-79
2023/12/26 14:16:44;;;;;;;8.18;0.70;;;;;;;;;;5156605;27;20043;-78
2023/12/26 14:19:10;;;;;;;6.95;0.57;;;;;;;;;;5156041;27;20046;-77
2023/12/26 14:21:36;;;;;;;7.28;0.65;;;;;;;;;;5138741;27;20137;-77
2023/12/26 14:24:02;;;;;;;8.00;0.52;;;;;;;;;;5156194;27;20039;-78
2023/12/26 14:26:30;;;;;;;6.65;0.45;;;;;;;;;;5156832;27;20421;-78
2023/12/26 14:28:56;;;;;;;6.97;0.40;;;;;;;;;;5156576;27;20129;-77
2023/12/26 14:31:24;;;;;;;6.65;0.43;;;;;;;;;;5156183;27;20130;-78
2023/12/26 14:33:50;;;;;;;8.43;0.70;;;;;;;;;;5121232;27;20493;-79
2023/12/26 14:36:16;;;;;;;4.30;0.40;;;;;;;;;;5137842;27;20053;-78
2023/12/26 14:38:42;;;;;;;6.78;0.30;;;;;;;;;;5137857;27;20046;-78
2023/12/26 14:41:08;;;;;;;7.43;0.35;;;;;;;;;;5155622;27;20046;-77
2023/12/26 14:43:34;;;;;;;7.22;0.45;;;;;;;;;;5156475;27;20050;-77
2023/12/26 14:46:00;;;;;;;6.57;1.17;;;;;;;;;;5138027;27;20057;-76
2023/12/26 14:48:26;;;;;;;4.85;0.30;;;;;;;;;;5138628;27;20050;-78
2023/12/26 14:50:52;;;;;;;5.32;0.30;;;;;;;;;;5121476;27;20111;-77
2023/12/26 14:53:18;;;;;;;2.88;0.20;;;;;;;;;;5120462;27;20074;-77
2023/12/26 14:55:44;;;;;;;4.18;0.30;;;;;;;;;;5156171;27;20169;-78
2023/12/26 14:58:10;;;;;;;5.07;0.50;;;;;;;;;;5137253;27;20457;-79
2023/12/26 15:00:38;;;;;;;3.13;0.20;;;;;;;;;;5155737;27;20054;-77
2023/12/26 15:03:04;;;;;;;3.75;0.38;;;;;;;;;;5137309;27;20481;-78
2023/12/26 15:05:33;;;;;;;2.10;0.30;;;;;;;;;;5137972;27;20042;-76
2023/12/26 15:08:00;;;;;;;4.18;0.28;;;;;;;;;;5137527;27;20094;-75
2023/12/26 15:10:27;;;;;;;6.97;0.35;;;;;;;;;;5138050;27;20053;-78
2023/12/26 15:12:53;;;;;;;5.13;0.20;;;;;;;;;;5126956;27;20051;-77
2023/12/26 15:15:19;;;;;;;7.00;0.60;;;;;;;;;;5166174;27;20043;-77
2023/12/26 15:17:45;;;;;;;11.38;0.82;;;;;;;;;;5162698;27;20047;-77
2023/12/26 15:20:11;;;;;;;4.40;0.65;;;;;;;;;;5149572;27;20174;-79
2023/12/26 15:22:37;;;;;;;2.47;0.30;;;;;;;;;;5158387;27;20042;-79
2023/12/26 15:25:03;;;;;;;2.80;0.30;;;;;;;;;;5137665;27;20039;-77
2023/12/26 15:27:30;;;;;;;2.58;0.20;;;;;;;;;;5137287;27;20107;-78
2023/12/26 15:29:56;;;;;;;5.43;0.30;;;;;;;;;;5136751;27;20078;-76
2023/12/26 15:32:22;;;;;;;7.18;0.50;;;;;;;;;;5136820;27;20043;-77
2023/12/26 15:34:48;;;;;;;8.20;0.80;;;;;;;;;;5155254;27;20068;-78
2023/12/26 15:37:14;;;;;;;5.28;0.40;;;;;;;;;;5155088;27;20053;-77
2023/12/26 15:39:41;;;;;;;9.32;0.60;;;;;;;;;;5156061;27;20433;-78
2023/12/26 15:42:07;;;;;;;8.18;0.60;;;;;;;;;;5136836;27;20047;-77
2023/12/26 15:44:33;;;;;;;4.65;0.63;;;;;;;;;;5136518;27;20077;-77
2023/12/26 15:46:59;;;;;;;5.38;0.63;;;;;;;;;;5136813;27;20050;-77
2023/12/26 15:49:25;;;;;;;5.45;0.50;;;;;;;;;;5154997;27;20038;-79
2023/12/26 15:51:51;;;;;;;7.72;0.90;;;;;;;;;;5137151;27;20435;-78
2023/12/26 15:54:18;;;;;;;5.82;0.57;;;;;;;;;;5154613;27;20046;-78
2023/12/26 15:56:44;;;;;;;7.05;0.88;;;;;;;;;;5137103;27;20046;-77
2023/12/26 15:59:10;;;;;;;4.45;0.30;;;;;;;;;;5154209;27;20050;-78
2023/12/26 16:01:36;;;;;;;10.02;0.60;;;;;;;;;;5136282;27;20487;-79
2023/12/26 16:04:03;;;;;;;7.68;0.70;;;;;;;;;;5137018;27;20054;-78
2023/12/26 16:06:29;;;;;;;8.48;0.50;;;;;;;;;;5135664;27;20057;-78
2023/12/26 16:08:56;;;;;;;7.53;0.47;;;;;;;;;;5155255;27;20045;-78
2023/12/26 16:11:22;;;;;;;7.05;0.40;;;;;;;;;;5154514;27;20531;-78
2023/12/26 16:13:48;;;;;;;4.68;0.40;;;;;;;;;;5154623;27;20049;-78
2023/12/26 16:16:14;;;;;;;6.82;0.40;;;;;;;;;;5136486;27;20101;-78
2023/12/26 16:18:41;;;;;;;5.13;0.40;;;;;;;;;;5155314;27;20054;-78
2023/12/26 16:21:07;;;;;;;7.47;0.30;;;;;;;;;;5154667;27;20078;-78
2023/12/26 16:23:33;;;;;;;8.15;0.57;;;;;;;;;;5135932;27;20325;-77
2023/12/26 16:26:03;;;;;;;4.82;0.70;;;;;;;;;;5136693;27;20043;-77
2023/12/26 16:28:30;;;;;;;4.47;0.25;;;;;;;;;;5135881;27;20122;-79
2023/12/26 16:30:58;;;;;;;6.90;0.45;;;;;;;;;;5155482;27;20047;-79
2023/12/26 16:33:24;;;;;;;4.38;0.43;;;;;;;;;;5162327;27;20050;-76
2023/12/26 16:35:50;;;;;;;11.90;0.40;;;;;;;;;;5166774;27;20046;-80
2023/12/26 16:38:16;;;;;;;3.50;0.30;;;;;;;;;;5136162;27;20051;-78
2023/12/26 16:40:42;;;;;;;7.10;0.30;;;;;;;;;;5154922;27;20039;-78
2023/12/26 16:43:08;;;;;;;7.95;0.43;;;;;;;;;;5154630;27;20047;-78
2023/12/26 16:45:34;;;;;;;10.43;0.40;;;;;;;;;;5136256;27;20053;-78
2023/12/26 16:48:02;;;;;;;5.18;0.77;;;;;;;;;;5155185;27;20049;-78
2023/12/26 16:50:28;;;;;;;6.30;0.30;;;;;;;;;;5119200;27;20053;-78
2023/12/26 16:52:55;;;;;;;11.10;0.68;;;;;;;;;;5137689;27;20190;-77
2023/12/26 16:55:21;;;;;;;6.25;0.45;;;;;;;;;;5119697;27;20046;-77
2023/12/26 16:57:47;;;;;;;8.13;0.50;;;;;;;;;;5119198;27;20042;-78
2023/12/26 17:00:13;;;;;;;10.32;0.52;;;;;;;;;;5135703;27;20055;-78
2023/12/26 17:02:40;;;;;;;9.27;0.80;;;;;;;;;;5154245;27;20047;-78
2023/12/26 17:05:06;;;;;;;5.47;0.40;;;;;;;;;;5155037;27;20054;-78
2023/12/26 17:07:33;;;;;;;6.45;0.50;;;;;;;;;;5135958;27;20051;-80